Time;durP1;ratioP1;P1;durP2;ratioP2;P2;SDS_P1;SDS_P2;PMS_P1;PMS_P2;Temp;Humidity;BMP_temperature;BMP_pressure;BME280_temperature;BME280_humidity;BME280_pressure;Samples;Min_cycle;Max_cycle;Signal;HPM_P1;HPM_P2
2023/08/27 00:01:20;;;;;;;13.20;8.52;;;;;;;16.69;100.00;99095.97;5024634;28;20050;-43
2023/08/27 00:03:46;;;;;;;13.73;8.38;;;;;;;16.88;100.00;99120.00;5022903;28;20033;-46
2023/08/27 00:06:12;;;;;;;13.63;8.93;;;;;;;16.89;100.00;99124.31;5007370;28;20509;-42
2023/08/27 00:08:37;;;;;;;12.90;8.38;;;;;;;16.91;100.00;99122.41;5018362;28;20045;-45
2023/08/27 00:11:04;;;;;;;15.25;8.52;;;;;;;16.81;100.00;99109.06;5023468;28;20147;-45
2023/08/27 00:13:30;;;;;;;12.38;8.50;;;;;;;16.94;99.94;99123.06;5024088;28;20053;-45
2023/08/27 00:15:56;;;;;;;11.20;7.80;;;;;;;16.96;99.74;99111.63;5021388;28;20033;-42
2023/08/27 00:18:22;;;;;;;14.40;8.30;;;;;;;16.85;99.60;99093.97;5020909;28;20683;-43
2023/08/27 00:20:48;;;;;;;12.30;8.02;;;;;;;16.99;99.24;99116.63;5022300;28;20038;-43
2023/08/27 00:23:15;;;;;;;12.60;8.30;;;;;;;17.00;99.07;99113.06;5001686;28;20048;-48
2023/08/27 00:25:44;;;;;;;14.70;8.50;;;;;;;16.85;98.86;99084.28;5024450;28;20041;-43
2023/08/27 00:28:14;;;;;;;13.05;8.32;;;;;;;17.00;98.86;99108.66;5026294;28;20068;-43
2023/08/27 00:30:41;;;;;;;12.45;8.52;;;;;;;16.98;98.48;99094.78;5027165;28;20041;-41
2023/08/27 00:33:07;;;;;;;14.40;8.35;;;;;;;16.97;98.40;99084.38;4998469;28;20504;-43
2023/08/27 00:35:35;;;;;;;14.45;7.43;;;;;;;16.79;98.14;99055.00;4998794;28;20077;-44
2023/08/27 00:38:01;;;;;;;12.32;7.75;;;;;;;17.02;98.02;99090.16;5023281;28;20095;-41
2023/08/27 00:40:29;;;;;;;11.50;7.68;;;;;;;17.02;97.92;99088.38;5006350;28;20106;-44
2023/08/27 00:42:55;;;;;;;13.55;8.15;;;;;;;17.02;97.67;99085.75;5027226;28;20560;-45
2023/08/27 00:45:21;;;;;;;10.98;7.78;;;;;;;17.04;97.38;99098.78;5025976;28;20080;-44
2023/08/27 00:47:48;;;;;;;10.45;7.63;;;;;;;17.02;97.39;99100.66;5027508;28;20049;-43
2023/08/27 00:50:15;;;;;;;10.57;7.32;;;;;;;16.91;97.13;99083.03;5016579;28;20052;-45
2023/08/27 00:52:42;;;;;;;8.55;7.00;;;;;;;17.00;96.75;99090.28;5027778;28;20049;-43
2023/08/27 00:55:09;;;;;;;13.55;7.78;;;;;;;16.93;96.56;99083.75;4996045;28;20065;-42
2023/08/27 00:57:36;;;;;;;13.45;7.47;;;;;;;17.04;96.29;99094.38;4994426;28;20569;-43
2023/08/27 01:00:03;;;;;;;10.30;7.00;;;;;;;17.04;96.10;99091.75;5029625;28;20037;-42
2023/08/27 01:02:32;;;;;;;11.50;7.13;;;;;;;17.04;95.59;99089.13;5050415;28;20125;-43
2023/08/27 01:04:58;;;;;;;11.10;7.05;;;;;;;17.05;95.56;99084.69;5028067;28;20525;-45
2023/08/27 01:08:09;;;;;;;9.15;6.80;;;;;;;17.05;95.30;99085.53;5011417;28;20041;-45
2023/08/27 01:10:53;;;;;;;11.95;7.18;;;;;;;17.03;95.21;99083.97;5009577;28;20041;-44
2023/08/27 01:13:57;;;;;;;10.15;6.40;;;;;;;17.02;95.08;99077.03;5012092;28;20045;-43
2023/08/27 01:16:23;;;;;;;11.02;6.88;;;;;;;16.89;94.71;99053.44;5006498;28;20418;-44
2023/08/27 01:18:52;;;;;;;13.32;7.65;;;;;;;17.04;94.78;99069.88;5027853;28;20091;-44
2023/08/27 01:21:25;;;;;;;10.05;6.75;;;;;;;17.04;94.89;99072.50;4992519;28;20481;-45
2023/08/27 01:23:51;;;;;;;10.95;7.28;;;;;;;17.04;94.82;99067.25;5007228;28;20489;-43
2023/08/27 01:26:27;;;;;;;11.57;7.68;;;;;;;17.05;94.83;99074.19;5027934;28;20429;-43
2023/08/27 01:29:26;;;;;;;10.35;6.82;;;;;;;17.05;94.97;99072.41;5028823;28;20536;-42
2023/08/27 01:32:12;;;;;;;11.52;7.05;;;;;;;17.05;94.93;99071.56;4996285;28;20053;-43
2023/08/27 01:34:40;;;;;;;11.40;7.30;;;;;;;17.04;94.71;99065.47;5008256;28;20124;-41
2023/08/27 01:37:06;;;;;;;9.77;6.63;;;;;;;17.00;94.65;99060.56;5026827;28;20065;-44
2023/08/27 01:39:32;;;;;;;10.95;6.80;;;;;;;17.03;94.48;99063.78;5028685;28;20048;-43
2023/08/27 01:41:58;;;;;;;9.25;6.63;;;;;;;17.02;94.48;99064.72;5028634;28;20053;-41
2023/08/27 01:44:24;;;;;;;9.45;6.32;;;;;;;17.03;94.47;99055.91;5023367;28;20041;-42
2023/08/27 01:46:50;;;;;;;9.35;6.38;;;;;;;17.05;94.19;99058.44;5028003;28;20064;-43
2023/08/27 01:49:17;;;;;;;9.30;6.03;;;;;;;16.91;94.09;99043.63;5028646;28;20044;-43
2023/08/27 01:51:43;;;;;;;10.82;6.45;;;;;;;17.04;94.02;99051.50;5024773;28;20140;-43
2023/08/27 01:54:08;;;;;;;10.52;6.18;;;;;;;16.88;94.01;99036.84;5026198;28;20545;-43
2023/08/27 01:56:34;;;;;;;10.05;6.40;;;;;;;17.00;94.08;99058.75;5028191;28;20425;-45
2023/08/27 01:59:00;;;;;;;11.27;6.95;;;;;;;16.93;94.03;99047.84;5010841;28;20106;-46
2023/08/27 02:01:26;;;;;;;12.10;6.60;;;;;;;16.71;94.00;99018.78;5021361;28;20095;-45
2023/08/27 02:03:53;;;;;;;9.07;7.25;;;;;;;17.01;94.01;99059.59;5029150;28;20049;-42
2023/08/27 02:06:18;;;;;;;15.82;8.90;;;;;;;16.88;93.99;99047.34;5021085;28;20566;-42
2023/08/27 02:08:45;;;;;;;14.32;9.85;;;;;;;17.00;94.06;99065.81;5026649;28;20052;-43
2023/08/27 02:11:11;;;;;;;16.92;11.00;;;;;;;16.99;94.01;99072.00;5026876;28;20048;-42
2023/08/27 02:13:36;;;;;;;11.80;7.95;;;;;;;16.99;93.76;99072.84;5029230;28;20056;-42
2023/08/27 02:16:02;;;;;;;10.98;6.80;;;;;;;16.84;93.34;99050.28;5027479;28;20073;-42
2023/08/27 02:18:28;;;;;;;11.93;7.05;;;;;;;16.97;93.60;99072.09;5027798;28;20102;-41
2023/08/27 02:20:56;;;;;;;8.90;7.30;;;;;;;16.96;93.38;99069.59;5026457;28;20132;-45
2023/08/27 02:23:23;;;;;;;13.90;7.63;;;;;;;16.96;93.24;99080.09;4988535;28;20056;-41
2023/08/27 02:25:49;;;;;;;13.15;9.57;;;;;;;16.95;93.34;99076.63;5030193;28;20044;-43
2023/08/27 02:28:15;;;;;;;17.85;11.40;;;;;;;16.90;93.26;99071.69;5011098;28;20056;-42
2023/08/27 02:30:41;;;;;;;14.50;10.60;;;;;;;16.94;92.89;99070.53;5009925;28;20033;-43
2023/08/27 02:33:07;;;;;;;15.48;10.27;;;;;;;16.92;92.94;99072.41;5027392;28;20037;-43
2023/08/27 02:35:33;;;;;;;13.73;9.73;;;;;;;16.92;92.58;99075.03;5021234;28;20060;-46
2023/08/27 02:37:59;;;;;;;14.70;9.52;;;;;;;16.75;92.70;99051.75;5027013;28;20049;-44
2023/08/27 02:40:25;;;;;;;8.80;6.60;;;;;;;16.89;92.73;99070.03;5022849;28;20044;-42
2023/08/27 02:42:50;;;;;;;9.00;6.35;;;;;;;16.91;92.71;99072.53;5026284;28;20064;-46
2023/08/27 02:45:16;;;;;;;8.23;6.68;;;;;;;16.92;92.74;99077.69;5026954;28;20564;-47
2023/08/27 02:47:42;;;;;;;8.40;6.40;;;;;;;16.93;92.41;99070.63;5027133;28;20516;-42
2023/08/27 02:50:09;;;;;;;9.00;6.20;;;;;;;16.94;92.52;99059.19;5009859;28;20052;-43
2023/08/27 02:52:34;;;;;;;9.43;7.00;;;;;;;16.96;92.30;99066.97;5023547;28;20034;-45
2023/08/27 02:55:00;;;;;;;8.05;6.57;;;;;;;16.96;92.33;99065.16;5009051;28;20060;-43
2023/08/27 02:57:26;;;;;;;9.18;6.50;;;;;;;16.98;92.27;99071.16;5027486;28;20100;-43
2023/08/27 02:59:52;;;;;;;9.13;7.45;;;;;;;16.98;91.97;99065.91;5026955;28;20045;-42
2023/08/27 03:02:18;;;;;;;11.10;6.72;;;;;;;17.01;91.99;99064.88;5027023;28;20041;-41
2023/08/27 03:04:44;;;;;;;9.38;6.68;;;;;;;17.01;91.90;99064.88;5008992;28;20045;-41
2023/08/27 03:07:10;;;;;;;11.30;6.25;;;;;;;17.01;91.72;99075.38;5024136;28;20403;-41
2023/08/27 03:09:36;;;;;;;7.78;6.13;;;;;;;17.00;91.58;99069.28;4989358;28;20176;-43
2023/08/27 03:12:03;;;;;;;8.48;6.22;;;;;;;16.98;91.13;99062.44;5027335;28;20045;-42
2023/08/27 03:14:29;;;;;;;9.45;6.20;;;;;;;16.99;90.87;99062.34;5026869;28;20034;-43
2023/08/27 03:16:55;;;;;;;10.15;6.30;;;;;;;16.84;90.74;99037.16;5026154;28;20051;-41
2023/08/27 03:19:20;;;;;;;8.80;5.88;;;;;;;17.02;90.88;99067.34;5026082;28;20151;-41
2023/08/27 03:21:46;;;;;;;7.95;5.95;;;;;;;17.04;90.69;99072.50;4990143;28;20048;-42
2023/08/27 03:24:12;;;;;;;8.35;6.22;;;;;;;17.03;90.58;99066.41;5004257;28;20049;-42
2023/08/27 03:26:38;;;;;;;8.63;5.55;;;;;;;17.04;90.61;99072.50;5015561;28;20505;-41
2023/08/27 03:29:04;;;;;;;10.07;5.63;;;;;;;17.04;90.34;99069.88;5010621;28;20045;-40
2023/08/27 03:31:31;;;;;;;7.47;5.47;;;;;;;17.06;89.95;99078.50;5010377;28;20204;-41
2023/08/27 03:33:57;;;;;;;9.13;5.93;;;;;;;17.04;89.83;99069.88;5019114;28;20109;-41
2023/08/27 03:36:23;;;;;;;7.38;5.43;;;;;;;17.09;89.61;99084.38;5024443;28;20053;-42
2023/08/27 03:38:49;;;;;;;8.88;5.82;;;;;;;17.11;89.32;99077.25;5017188;28;20045;-42
2023/08/27 03:41:15;;;;;;;9.50;7.00;;;;;;;17.10;89.47;99072.94;4990878;28;20054;-42
2023/08/27 03:43:41;;;;;;;9.25;6.72;;;;;;;17.12;89.29;99071.00;5026303;28;20049;-41
2023/08/27 03:46:07;;;;;;;7.50;5.53;;;;;;;17.13;89.47;99072.69;5026490;28;20042;-42
2023/08/27 03:48:33;;;;;;;8.82;6.10;;;;;;;17.01;89.49;99049.09;5021821;28;20534;-42
2023/08/27 03:50:59;;;;;;;8.13;6.50;;;;;;;17.16;89.18;99072.50;5007834;28;20516;-41
2023/08/27 03:53:25;;;;;;;8.05;6.25;;;;;;;17.17;89.22;99066.28;5022717;28;20650;-42
2023/08/27 03:55:53;;;;;;;8.02;6.40;;;;;;;16.91;89.22;99020.00;5039406;28;20041;-42
2023/08/27 03:58:19;;;;;;;7.78;5.95;;;;;;;17.25;89.25;99077.09;5025157;28;20045;-41
2023/08/27 04:00:47;;;;;;;11.20;7.07;;;;;;;17.30;88.94;99066.25;5026833;28;20460;-43
2023/08/27 04:03:13;;;;;;;9.55;6.60;;;;;;;17.30;88.73;99061.00;5025914;28;20041;-41
2023/08/27 04:05:40;;;;;;;9.15;6.55;;;;;;;17.21;88.49;99038.00;5024933;28;20536;-42
2023/08/27 04:08:07;;;;;;;10.45;7.15;;;;;;;17.35;88.27;99054.47;5025282;28;20065;-43
2023/08/27 04:10:33;;;;;;;9.15;6.60;;;;;;;17.22;88.28;99024.75;5035952;28;20570;-43
2023/08/27 04:12:59;;;;;;;8.15;6.35;;;;;;;17.38;87.97;99051.59;5021115;28;20132;-42
2023/08/27 04:15:27;;;;;;;9.10;6.38;;;;;;;17.41;87.86;99050.56;5026439;28;20136;-42
2023/08/27 04:17:53;;;;;;;12.52;7.40;;;;;;;17.45;87.74;99053.78;5026044;28;20156;-42
2023/08/27 04:20:19;;;;;;;9.05;6.70;;;;;;;17.50;87.53;99059.53;4989795;28;20557;-41
2023/08/27 04:22:45;;;;;;;10.50;7.00;;;;;;;17.54;87.13;99056.59;5018438;28;20140;-39
2023/08/27 04:25:15;;;;;;;9.63;6.80;;;;;;;17.58;86.87;99050.19;5029805;28;20042;-41
2023/08/27 04:27:41;;;;;;;8.70;6.20;;;;;;;17.61;86.58;99038.63;5026289;28;20529;-42
2023/08/27 04:30:07;;;;;;;10.23;7.32;;;;;;;17.63;86.15;99036.72;5030005;28;20110;-41
2023/08/27 04:32:33;;;;;;;10.75;7.72;;;;;;;17.65;85.98;99034.81;5008459;28;20037;-43
2023/08/27 04:34:59;;;;;;;11.65;8.45;;;;;;;17.66;85.65;99025.97;5023264;28;20040;-41
2023/08/27 04:37:25;;;;;;;15.13;9.20;;;;;;;17.55;84.98;99003.06;5003116;28;20041;-42
2023/08/27 04:39:51;;;;;;;16.75;9.88;;;;;;;17.78;84.96;99036.44;5029634;28;20394;-43
2023/08/27 04:42:17;;;;;;;16.88;10.02;;;;;;;17.84;84.65;99047.44;5029844;28;20072;-45
2023/08/27 04:44:44;;;;;;;13.50;11.55;;;;;;;17.88;84.60;99039.22;5012114;28;20048;-41
2023/08/27 04:47:10;;;;;;;16.35;13.55;;;;;;;17.90;84.20;99029.41;5030860;28;20037;-42
2023/08/27 04:49:36;;;;;;;17.10;13.13;;;;;;;17.98;83.83;99027.03;5028320;28;20034;-40
2023/08/27 04:52:04;;;;;;;15.80;12.23;;;;;;;18.02;83.29;99025.00;5028527;28;20131;-41
2023/08/27 04:54:30;;;;;;;17.70;12.20;;;;;;;18.07;82.92;99031.59;5029396;28;20037;-41
2023/08/27 04:56:56;;;;;;;16.40;10.98;;;;;;;18.16;82.50;99033.53;5027394;28;20052;-44
2023/08/27 04:59:21;;;;;;;16.85;11.05;;;;;;;18.23;81.78;99041.81;5028379;28;20095;-41
2023/08/27 05:01:47;;;;;;;16.48;9.88;;;;;;;18.29;80.97;99041.34;5025730;28;20050;-42
2023/08/27 05:04:13;;;;;;;14.18;10.25;;;;;;;18.18;80.48;99025.53;5029038;28;20063;-41
2023/08/27 05:06:39;;;;;;;66.18;12.15;;;;;;;18.17;79.85;99011.53;5010932;28;20061;-43
2023/08/27 05:09:05;;;;;;;15.00;9.77;;;;;;;18.36;79.57;99037.31;5028561;28;20037;-42
2023/08/27 05:11:31;;;;;;;14.20;9.13;;;;;;;18.41;79.52;99029.06;5026934;28;20052;-41
2023/08/27 05:13:57;;;;;;;14.15;9.13;;;;;;;18.31;78.90;99022.81;5026703;28;20069;-43
2023/08/27 05:16:24;;;;;;;12.82;9.48;;;;;;;18.47;78.74;99052.28;5027383;28;20048;-42
2023/08/27 05:18:50;;;;;;;12.70;9.63;;;;;;;18.38;78.40;99038.00;5011811;28;20591;-41
2023/08/27 05:21:16;;;;;;;11.48;8.82;;;;;;;18.51;78.05;99059.81;5012551;28;20056;-40
2023/08/27 05:23:42;;;;;;;13.48;8.50;;;;;;;18.47;77.79;99037.31;5021961;28;20069;-41
2023/08/27 05:26:08;;;;;;;15.90;10.35;;;;;;;18.67;77.58;99048.97;5027781;28;20140;-42
2023/08/27 05:28:33;;;;;;;16.55;9.18;;;;;;;18.51;76.90;99009.81;5024075;28;20136;-42
2023/08/27 05:31:00;;;;;;;11.75;8.68;;;;;;;18.84;76.63;99056.38;5040393;28;20097;-40
2023/08/27 05:33:25;;;;;;;14.98;8.35;;;;;;;18.90;76.13;99048.00;5026127;28;20034;-41
2023/08/27 05:35:51;;;;;;;12.55;10.00;;;;;;;19.00;75.58;99062.13;5011438;28;20120;-44
2023/08/27 05:38:18;;;;;;;11.27;8.38;;;;;;;19.09;74.80;99059.75;5022818;28;20432;-42
2023/08/27 05:40:44;;;;;;;9.50;7.55;;;;;;;19.25;74.27;99065.47;5026864;28;20056;-41
2023/08/27 05:43:10;;;;;;;17.33;7.40;;;;;;;19.37;73.57;99064.47;5021479;28;20037;-40
2023/08/27 05:45:36;;;;;;;12.88;6.75;;;;;;;19.45;72.96;99055.03;5028819;28;20095;-41
2023/08/27 05:48:03;;;;;;;9.98;7.63;;;;;;;19.56;72.72;99067.34;5028510;28;20068;-40
2023/08/27 05:50:34;;;;;;;10.70;7.70;;;;;;;19.69;72.20;99069.81;5056756;28;20045;-41
2023/08/27 05:53:02;;;;;;;10.48;7.68;;;;;;;19.78;71.58;99075.16;5017914;28;20128;-40
2023/08/27 05:55:28;;;;;;;11.18;8.05;;;;;;;19.72;70.92;99040.56;5028538;28;20041;-41
2023/08/27 05:57:53;;;;;;;7.93;6.43;;;;;;;19.84;70.13;99036.91;5028033;28;20041;-43
2023/08/27 06:00:19;;;;;;;8.02;6.88;;;;;;;19.94;69.76;99035.19;5025910;28;20045;-41
2023/08/27 06:02:45;;;;;;;10.32;6.32;;;;;;;20.11;69.55;99041.69;5003954;28;20137;-42
2023/08/27 06:05:11;;;;;;;9.57;6.20;;;;;;;20.30;68.76;99055.03;5009926;28;20127;-42
2023/08/27 06:07:37;;;;;;;10.60;6.13;;;;;;;20.54;68.12;99047.69;5025529;28;20512;-41
2023/08/27 06:10:04;;;;;;;10.25;6.57;;;;;;;20.66;67.31;99025.53;5025920;28;20049;-41
2023/08/27 06:12:30;;;;;;;7.88;5.97;;;;;;;21.08;66.24;99062.41;5032922;28;20546;-42
2023/08/27 06:14:56;;;;;;;12.52;6.97;;;;;;;21.31;65.62;99058.59;5027407;28;20127;-43
2023/08/27 06:17:22;;;;;;;7.75;6.28;;;;;;;21.62;64.64;99064.63;5026269;28;20123;-43
2023/08/27 06:19:48;;;;;;;9.88;7.32;;;;;;;21.78;63.69;99056.16;5053499;28;20045;-42
2023/08/27 06:22:14;;;;;;;10.18;7.28;;;;;;;21.88;63.15;99067.56;5009722;28;20542;-42
2023/08/27 06:24:40;;;;;;;9.32;6.93;;;;;;;21.87;62.78;99068.56;5006063;28;20046;-46
2023/08/27 06:27:06;;;;;;;9.90;7.30;;;;;;;21.87;62.44;99079.16;5024998;28;20098;-45
2023/08/27 06:29:33;;;;;;;8.38;7.03;;;;;;;21.69;62.36;99055.19;5026839;28;20767;-46
2023/08/27 06:31:59;;;;;;;9.98;6.70;;;;;;;21.71;61.89;99050.59;5010670;28;20038;-46
2023/08/27 06:34:28;;;;;;;9.82;7.35;;;;;;;21.92;61.62;99072.47;5026442;28;20473;-46
2023/08/27 06:36:54;;;;;;;10.50;7.97;;;;;;;22.09;61.07;99073.59;5026577;28;20044;-43
2023/08/27 06:39:20;;;;;;;12.15;8.15;;;;;;;21.95;60.75;99066.94;5027139;28;20033;-42
2023/08/27 06:41:46;;;;;;;10.93;7.25;;;;;;;22.08;60.49;99073.75;5009847;28;20056;-44
2023/08/27 06:44:13;;;;;;;8.27;7.40;;;;;;;21.92;60.29;99067.19;5024275;28;20095;-45
2023/08/27 06:46:39;;;;;;;9.82;8.00;;;;;;;21.66;60.57;99049.34;5009186;28;20575;-43
2023/08/27 06:49:05;;;;;;;9.88;8.60;;;;;;;21.94;60.08;99061.75;5025455;28;20041;-42
2023/08/27 06:51:31;;;;;;;11.18;8.55;;;;;;;22.07;60.07;99048.25;5025787;28;20568;-43
2023/08/27 06:53:58;;;;;;;10.40;8.75;;;;;;;21.78;59.92;99035.81;5025666;28;20405;-43
2023/08/27 06:56:26;;;;;;;10.20;8.90;;;;;;;21.73;60.39;99035.41;5025549;28;20041;-44
2023/08/27 06:58:51;;;;;;;12.88;8.70;;;;;;;21.78;60.79;99049.06;5007288;28;20135;-43
2023/08/27 07:01:17;;;;;;;12.02;10.00;;;;;;;21.64;61.07;99043.34;5027535;28;20072;-42
2023/08/27 07:03:44;;;;;;;11.73;9.77;;;;;;;21.65;61.53;99063.53;5009615;28;20037;-44
2023/08/27 07:06:11;;;;;;;12.27;8.85;;;;;;;21.56;61.95;99067.84;5026564;28;20071;-42
2023/08/27 07:08:37;;;;;;;14.70;9.75;;;;;;;21.56;61.97;99073.94;5017559;28;20129;-42
2023/08/27 07:11:05;;;;;;;14.85;9.25;;;;;;;21.54;61.91;99064.50;5026749;28;20501;-42
2023/08/27 07:13:31;;;;;;;;;;;;;;;21.56;61.96;99058.06;5027525;28;20041;-42
2023/08/27 07:15:57;;;;;;;17.65;12.00;;;;;;;21.65;61.85;99060.88;4993877;28;20397;-41
2023/08/27 07:18:23;;;;;;;15.10;9.18;;;;;;;21.76;61.65;99043.06;5042185;28;20045;-43
2023/08/27 07:20:52;;;;;;;10.25;8.57;;;;;;;22.44;59.87;99069.53;5042205;28;20148;-41
2023/08/27 07:23:18;;;;;;;;;;;;;;;24.51;56.32;99068.72;5026837;28;20394;-45
2023/08/27 07:25:44;;;;;;;11.20;6.82;;;;;;;26.29;52.47;99056.91;5026153;28;19927;-43
2023/08/27 07:28:11;;;;;;;10.25;7.78;;;;;;;27.51;49.44;99056.56;5025676;28;20152;-45
2023/08/27 07:30:37;;;;;;;8.00;7.20;;;;;;;26.86;49.27;99028.28;5023508;28;20064;-43
2023/08/27 07:33:06;;;;;;;8.57;7.15;;;;;;;26.27;49.68;99053.59;5019587;28;20539;-43
2023/08/27 07:35:32;;;;;;;10.73;7.70;;;;;;;25.65;50.02;99031.88;5009634;28;20033;-46
2023/08/27 07:37:58;;;;;;;7.50;6.65;;;;;;;26.53;48.30;99058.72;5048676;28;20092;-43
2023/08/27 07:40:25;;;;;;;10.52;6.85;;;;;;;26.73;47.47;99054.69;5021957;28;20509;-43
2023/08/27 07:42:51;;;;;;;9.07;7.50;;;;;;;28.01;45.59;99058.72;5027240;28;20045;-44
2023/08/27 07:45:17;;;;;;;7.90;6.50;;;;;;;29.98;41.14;99063.41;5024330;28;20539;-44
2023/08/27 07:47:43;;;;;;;8.27;6.40;;;;;;;31.59;38.80;99058.72;5027913;28;20048;-44
2023/08/27 07:50:09;;;;;;;7.53;6.25;;;;;;;33.60;36.50;99057.13;5013260;28;20052;-45
2023/08/27 07:52:35;;;;;;;7.82;6.43;;;;;;;34.11;35.38;99056.19;5027149;28;20041;-45
2023/08/27 07:55:03;;;;;;;9.75;6.93;;;;;;;35.31;33.63;99058.38;5046909;28;20615;-43
2023/08/27 07:57:29;;;;;;;6.65;6.05;;;;;;;35.96;31.79;99058.53;5029637;28;20404;-40
2023/08/27 07:59:55;;;;;;;6.97;6.00;;;;;;;36.96;30.18;99039.53;5040858;28;20095;-45
2023/08/27 08:02:20;;;;;;;7.05;6.10;;;;;;;37.68;28.91;99030.78;5036403;28;20196;-46
2023/08/27 08:04:46;;;;;;;6.75;6.10;;;;;;;37.42;27.79;99023.19;5039686;28;20056;-46
2023/08/27 08:07:12;;;;;;;6.60;6.00;;;;;;;36.34;28.79;99025.66;5033094;28;20041;-44
2023/08/27 08:09:38;;;;;;;6.38;5.75;;;;;;;36.88;28.06;99035.31;5029072;28;20526;-43
2023/08/27 08:12:04;;;;;;;7.45;5.20;;;;;;;37.24;27.57;99026.91;5034101;28;20041;-44
2023/08/27 08:14:31;;;;;;;6.35;5.70;;;;;;;37.72;26.62;99028.38;5030639;28;20540;-47
2023/08/27 08:16:57;;;;;;;6.35;5.75;;;;;;;37.82;26.42;99031.28;5030801;28;20025;-46
2023/08/27 08:19:22;;;;;;;7.10;5.40;;;;;;;38.83;25.68;99030.19;5026084;28;20045;-46
2023/08/27 08:21:48;;;;;;;7.32;5.80;;;;;;;39.21;25.43;99028.50;5029679;28;20055;-50
2023/08/27 08:24:14;;;;;;;10.02;6.85;;;;;;;40.07;24.65;99032.16;5026871;28;20517;-45
2023/08/27 08:26:40;;;;;;;8.60;5.60;;;;;;;38.55;25.75;99038.47;5011169;28;20033;-43
2023/08/27 08:29:06;;;;;;;8.57;5.30;;;;;;;36.22;27.53;99005.91;5031442;28;20110;-44
2023/08/27 08:31:32;;;;;;;5.45;4.95;;;;;;;34.26;30.22;99019.75;5029650;28;20041;-42
2023/08/27 08:33:58;;;;;;;6.47;5.40;;;;;;;32.63;31.91;99014.94;5029204;28;20051;-46
2023/08/27 08:36:24;;;;;;;8.43;6.05;;;;;;;31.30;34.28;99019.53;5027578;28;20036;-44
2023/08/27 08:38:50;;;;;;;6.07;5.10;;;;;;;31.80;33.65;99011.00;5028679;28;20049;-45
2023/08/27 08:41:20;;;;;;;7.03;4.47;;;;;;;33.89;30.82;98997.19;5020674;28;20596;-45
2023/08/27 08:44:19;;;;;;;5.65;5.03;;;;;;;34.82;29.42;99022.31;5009531;28;20068;-43
2023/08/27 08:46:45;;;;;;;7.65;4.95;;;;;;;35.76;28.84;99003.88;5018476;28;20043;-44
2023/08/27 08:49:14;;;;;;;8.07;5.22;;;;;;;36.59;27.75;99010.00;5008964;28;20045;-42
2023/08/27 08:51:41;;;;;;;6.93;4.70;;;;;;;36.86;26.88;99005.75;5028947;28;20041;-45
2023/08/27 08:54:11;;;;;;;6.05;5.30;;;;;;;36.68;26.84;99014.03;5020537;28;20096;-49
2023/08/27 08:56:41;;;;;;;5.90;4.47;;;;;;;35.81;27.22;99009.44;4994360;28;20081;-45
2023/08/27 08:59:07;;;;;;;5.05;4.55;;;;;;;35.17;28.38;99013.63;5018320;28;20477;-44
2023/08/27 09:01:34;;;;;;;6.32;4.80;;;;;;;36.66;26.96;99012.63;5027210;28;20037;-43
2023/08/27 09:04:01;;;;;;;6.50;5.40;;;;;;;37.32;26.18;99015.66;5026014;28;20128;-43
2023/08/27 09:06:27;;;;;;;6.88;5.72;;;;;;;36.76;26.24;99020.97;5009337;28;20059;-43
2023/08/27 09:08:54;;;;;;;8.77;4.60;;;;;;;36.27;27.21;99001.44;5010703;28;20411;-43
2023/08/27 09:11:20;;;;;;;5.50;5.00;;;;;;;37.44;25.75;99020.22;5055373;28;20125;-42
2023/08/27 09:13:46;;;;;;;5.82;4.60;;;;;;;37.49;25.75;99018.41;5028241;28;20037;-41
2023/08/27 09:16:12;;;;;;;4.97;4.57;;;;;;;35.87;26.81;98992.28;5040977;28;20060;-50
2023/08/27 09:18:38;;;;;;;5.43;4.35;;;;;;;35.59;27.60;99015.34;5022542;28;20568;-43
2023/08/27 09:21:06;;;;;;;8.75;5.40;;;;;;;35.73;27.92;99017.88;5034653;28;20123;-44
2023/08/27 09:23:37;;;;;;;5.30;4.20;;;;;;;33.90;29.25;99016.91;5028698;28;20135;-46
2023/08/27 09:26:06;;;;;;;8.18;3.75;;;;;;;34.15;29.36;99014.22;5007692;28;20042;-44
2023/08/27 09:28:35;;;;;;;4.53;4.13;;;;;;;35.73;27.54;99017.88;5026145;28;20037;-43
2023/08/27 09:31:01;;;;;;;4.70;4.20;;;;;;;36.95;26.14;99000.78;5029496;28;20131;-48
2023/08/27 09:33:41;;;;;;;6.22;4.22;;;;;;;37.93;25.40;99002.41;5028578;28;20045;-44
2023/08/27 09:36:08;;;;;;;4.25;3.85;;;;;;;38.43;25.26;98995.06;5035692;28;20034;-46
2023/08/27 09:38:34;;;;;;;4.10;3.70;;;;;;;39.22;24.58;98987.44;5008398;28;20045;-47
2023/08/27 09:41:14;;;;;;;5.13;3.72;;;;;;;39.63;23.62;98966.94;5010218;28;20037;-43
2023/08/27 09:43:41;;;;;;;7.47;3.75;;;;;;;40.19;23.27;98973.75;5024589;28;20037;-47
2023/08/27 09:46:13;;;;;;;4.03;3.50;;;;;;;40.61;22.47;98972.88;5020025;28;20098;-44
2023/08/27 09:48:38;;;;;;;3.80;3.50;;;;;;;41.18;22.30;98967.44;5000718;28;20509;-44
2023/08/27 09:51:05;;;;;;;4.65;3.75;;;;;;;41.50;21.80;98961.00;5029242;28;20080;-43
2023/08/27 09:53:31;;;;;;;3.63;3.08;;;;;;;41.56;21.20;98954.44;5028308;28;20067;-45
2023/08/27 09:55:58;;;;;;;4.60;4.20;;;;;;;42.03;21.07;98959.66;5024122;28;20531;-45
2023/08/27 09:58:27;;;;;;;4.28;3.63;;;;;;;42.22;20.02;98961.53;5019525;28;20037;-42
2023/08/27 10:01:00;;;;;;;3.70;3.40;;;;;;;41.83;19.82;98953.06;5019969;28;20065;-44
2023/08/27 10:03:29;;;;;;;4.20;3.50;;;;;;;42.04;19.93;98967.56;5017485;28;20057;-46
2023/08/27 10:05:56;;;;;;;4.03;2.90;;;;;;;42.44;19.81;98960.44;5022496;28;20123;-44
2023/08/27 10:08:22;;;;;;;5.10;3.20;;;;;;;42.72;19.77;98940.66;5014323;28;20092;-44
2023/08/27 10:10:47;;;;;;;4.55;3.53;;;;;;;43.18;19.74;98954.16;5014478;28;20607;-45
2023/08/27 10:13:19;;;;;;;3.70;3.20;;;;;;;43.62;19.29;98962.34;5014880;28;20095;-45
2023/08/27 10:15:47;;;;;;;5.03;3.53;;;;;;;43.72;18.94;98965.00;5019367;28;20038;-43
2023/08/27 10:18:16;;;;;;;3.95;3.13;;;;;;;43.62;18.96;98954.13;5016872;28;20060;-45
2023/08/27 10:20:42;;;;;;;5.35;3.20;;;;;;;43.63;19.38;98962.06;5013278;28;20144;-44
2023/08/27 10:23:10;;;;;;;3.83;2.60;;;;;;;43.74;19.14;98955.41;5015057;28;20124;-45
2023/08/27 10:25:37;;;;;;;2.53;2.30;;;;;;;41.32;20.54;98921.34;5015219;28;20406;-51
2023/08/27 10:28:03;;;;;;;4.22;2.55;;;;;;;40.09;21.55;98921.88;5026314;28;20045;-45
2023/08/27 10:30:31;;;;;;;5.55;2.60;;;;;;;40.19;21.45;98921.13;5018828;28;20033;-44
2023/08/27 10:32:57;;;;;;;;;;;;;;;38.40;22.99;98919.53;5020358;28;20041;-41
2023/08/27 10:35:23;;;;;;;4.22;2.10;;;;;;;36.39;24.69;98918.28;5004347;28;19940;-44
2023/08/27 10:37:52;;;;;;;2.90;2.60;;;;;;;37.38;23.88;98902.66;5016175;28;20390;-43
2023/08/27 10:40:18;;;;;;;3.40;2.38;;;;;;;38.88;22.70;98893.50;5007064;28;20054;-44
2023/08/27 10:42:44;;;;;;;3.45;2.45;;;;;;;39.95;21.71;98912.50;5007432;28;20095;-49
2023/08/27 10:45:17;;;;;;;4.32;2.40;;;;;;;39.80;21.99;98906.97;5010395;28;20049;-46
2023/08/27 10:48:08;;;;;;;7.20;2.55;;;;;;;39.86;21.76;98914.09;5026684;28;20128;-44
2023/08/27 10:50:55;;;;;;;2.58;2.38;;;;;;;40.04;21.26;98918.31;5025271;28;20076;-45
2023/08/27 10:53:21;;;;;;;2.45;2.25;;;;;;;39.37;21.23;98886.97;5054103;28;20049;-44
2023/08/27 10:55:52;;;;;;;2.78;2.58;;;;;;;40.20;21.66;98911.88;5023212;28;20053;-44
2023/08/27 10:58:22;;;;;;;3.40;2.55;;;;;;;40.66;20.54;98917.59;5027358;28;20547;-46
2023/08/27 11:01:04;;;;;;;2.70;2.50;;;;;;;38.88;21.67;98916.09;5010732;28;20091;-45
2023/08/27 11:03:58;;;;;;;3.10;2.10;;;;;;;35.67;25.17;98911.44;5011199;28;20066;-44
2023/08/27 11:06:34;;;;;;;3.15;2.22;;;;;;;34.12;26.87;98909.44;5012511;28;20049;-43
2023/08/27 11:09:00;;;;;;;4.15;2.03;;;;;;;35.54;25.75;98893.50;5039639;28;20045;-43
2023/08/27 11:11:26;;;;;;;2.28;2.08;;;;;;;37.68;23.86;98907.84;5034029;28;20040;-44
2023/08/27 11:14:05;;;;;;;5.22;1.95;;;;;;;39.46;22.23;98908.28;5032845;28;20485;-46
2023/08/27 11:16:31;;;;;;;2.40;2.20;;;;;;;40.44;20.70;98906.84;5022201;28;20037;-43
2023/08/27 11:18:57;;;;;;;3.97;2.15;;;;;;;40.97;20.45;98892.91;5052297;28;20052;-44
2023/08/27 11:21:26;;;;;;;2.83;1.75;;;;;;;39.31;21.05;98917.91;5030606;28;20080;-48
2023/08/27 11:24:12;;;;;;;2.55;2.05;;;;;;;36.07;24.68;98916.97;5025178;28;20055;-48
2023/08/27 11:26:39;;;;;;;3.33;2.40;;;;;;;34.80;26.42;98915.56;4992605;28;20375;-47
2023/08/27 11:29:09;;;;;;;4.20;2.65;;;;;;;33.44;28.16;98894.00;5025557;28;20049;-45
2023/08/27 11:31:38;;;;;;;2.92;2.25;;;;;;;32.37;29.79;98900.09;5024003;28;20030;-46